Portada
METAR-TAF:

METAR-TAF

Aeroports :

Txengdu, Xina

latitud: 30-40N, longitud: 104-01E, altitud: 508 m

Observació

L'informe es va fer fa 38 minuts, a les 11:00 UTC
Vent 10 kt del Nord/Nord-Est
Temperatura 15°C
Humitat 55%
Pressió 1015 hPa
Visibilitat 10 km o més
Escasses núvols a una alçada de 5000 ft

METAR: ZUUU 201100Z 02005MPS 9999 FEW050 15/06 Q1015 NOSIG

Hora: 19:38 (11:38 UTC)

Pronòstic

L'informe es va fer fa 3 hores i 35 minuts, a les 08:03 UTC
Pronòstic vàlid del 20 a les 12 UTC al 21 a les 12 UTC
Vent 6 kt del Nord/Nord-Est
Visibilitat: 5000 m
Núvols disperses a una alçada de 5000 ft
boirina

TAF: ZUUU 200803Z 2012/2112 02003MPS 5000 BR SCT050 TX12/2107Z TN04/2023Z

Observacions i pronòstics meteorològics de més de 4000 aeroports (METAR i TAF).

Les estacions disponibles són els punts grocs i vermells al mapa.

Posi el ratolí al punt desitjat per veure el nom de l'estació.

Feu clic per veure les observacions i els pronòstics meteorològics.

Per canviar el mapa: feu clic els botons verds amb una creu de color negre per apropar; al botó verd amb un guió per allunyar la imatge; o en les fletxes verdes per a mapes adjacents.


METAR-TAF: